createdAt,value
2022-07-25T00:18:22.035Z,7.9
2022-07-25T00:28:31.132Z,6.72
2022-07-25T00:38:40.226Z,6.56
2022-07-25T00:58:51.625Z,7.78
2022-07-25T01:09:00.873Z,10.56
2022-07-25T01:19:10.282Z,7.55
2022-07-25T01:29:19.278Z,8.81
2022-07-25T01:39:28.332Z,8.98
2022-07-25T01:49:36.972Z,9.14
2022-07-25T01:59:46.114Z,9.09
2022-07-25T02:09:56.794Z,9.33
2022-07-25T02:20:03.461Z,8.62
2022-07-25T02:30:12.626Z,8.73
2022-07-25T02:40:21.753Z,8.54
2022-07-25T02:50:30.873Z,10.31
2022-07-25T03:00:39.990Z,9.65
2022-07-25T03:10:49.028Z,9.02
2022-07-25T03:20:58.216Z,9.44
2022-07-25T03:31:09.019Z,10.01
2022-07-25T03:41:08.188Z,9.68
2022-07-25T03:51:17.523Z,9.25
2022-07-25T04:01:26.539Z,8.21
2022-07-25T04:11:34.795Z,11.12
2022-07-25T04:21:43.811Z,12.29
2022-07-25T04:31:52.989Z,11.16
2022-07-25T04:42:02.249Z,14.73
2022-07-25T04:52:11.423Z,12.73
2022-07-25T05:02:20.415Z,12.16
2022-07-25T05:12:29.480Z,13.34
2022-07-25T05:22:38.839Z,13.2
2022-07-25T05:32:48.034Z,15.68
2022-07-25T05:43:00.881Z,20.72
2022-07-25T05:53:05.109Z,16.89
2022-07-25T06:03:14.385Z,15.03
2022-07-25T06:13:23.565Z,12.17
2022-07-25T06:23:30.297Z,18.17
2022-07-25T06:33:40.841Z,14.14
2022-07-25T06:43:40.118Z,16.46
2022-07-25T06:53:40.381Z,16.88
2022-07-25T07:03:49.181Z,25.73
2022-07-25T07:13:58.656Z,23.08
2022-07-25T07:24:12.685Z,20.48
2022-07-25T07:34:16.922Z,21.53
2022-07-25T07:44:12.507Z,16.94
2022-07-25T07:54:13.692Z,16.91
2022-07-25T08:04:16.211Z,11.9
2022-07-25T08:14:15.120Z,15.77
2022-07-25T08:24:24.356Z,10.13
2022-07-25T08:34:34.615Z,9.97
2022-07-25T08:44:33.888Z,12.62
2022-07-25T08:54:42.191Z,10.8
2022-07-25T09:04:51.620Z,10.76
2022-07-25T09:15:01.011Z,11.01
2022-07-25T09:25:09.227Z,10.15
2022-07-25T09:35:18.701Z,12.62
2022-07-25T09:45:31.510Z,12.51
2022-07-25T09:55:29.190Z,11.81
2022-07-25T10:05:38.506Z,10.26
2022-07-25T10:15:47.728Z,9.72
2022-07-25T10:25:56.600Z,11.19
2022-07-25T10:36:06.486Z,11.63
2022-07-25T10:46:23.751Z,13.86
2022-07-25T10:56:26.025Z,12.43
2022-07-25T11:06:35.337Z,12.37
2022-07-25T11:16:35.954Z,14.8
2022-07-25T11:26:47.078Z,10.65
2022-07-25T11:36:50.295Z,11.97
2022-07-25T11:46:50.803Z,11.41
2022-07-25T11:56:49.724Z,9.93
2022-07-25T12:06:59.012Z,10.58
2022-07-25T12:17:09.858Z,9.72
2022-07-25T12:27:14.002Z,10.97
2022-07-25T12:37:13.252Z,10.59
2022-07-25T12:47:23.563Z,10.79
2022-07-25T12:58:07.645Z,9.86
2022-07-25T13:17:30.941Z,13.09
2022-07-25T13:27:38.269Z,12
2022-07-25T13:38:06.329Z,10.85
2022-07-25T13:48:30.949Z,12.12
2022-07-25T14:08:08.378Z,14.19
2022-07-25T14:18:05.691Z,12.34
2022-07-25T14:28:14.657Z,10.83
2022-07-25T14:38:21.461Z,14.14
2022-07-25T14:48:23.850Z,12.53
2022-07-25T14:58:31.331Z,13.04
2022-07-25T15:08:35.844Z,12.9
2022-07-25T15:18:52.493Z,10.57
2022-07-25T15:28:44.381Z,10.59
2022-07-25T15:38:44.335Z,12.27
2022-07-25T15:49:00.906Z,11.57
2022-07-25T15:59:09.170Z,12.96
2022-07-25T16:09:20.625Z,12.61
2022-07-25T16:19:32.382Z,10.36
2022-07-25T16:29:27.407Z,10.46
2022-07-25T16:39:34.173Z,14.84
2022-07-25T16:49:35.572Z,10.24
2022-07-25T16:59:37.113Z,12.43
2022-07-25T17:09:41.467Z,9.09
2022-07-25T17:19:41.634Z,13.2
2022-07-25T17:29:41.967Z,11
2022-07-25T17:39:43.469Z,11.91
2022-07-25T17:49:49.948Z,10.33
2022-07-25T18:00:19.025Z,11.94
2022-07-25T18:09:58.582Z,10.67
2022-07-25T18:20:15.714Z,12.42
2022-07-25T18:30:03.951Z,11.38
2022-07-25T18:40:14.921Z,9.64
2022-07-25T18:50:28.989Z,10.14
2022-07-25T19:00:39.714Z,9.25
2022-07-25T19:10:51.888Z,18.41
2022-07-25T19:21:26.308Z,14.86
2022-07-25T19:30:39.425Z,12.36
2022-07-25T19:40:55.845Z,11.2
2022-07-25T19:50:57.380Z,12.64
2022-07-25T20:01:00.782Z,10.9
2022-07-25T20:11:04.295Z,12.55
2022-07-25T20:21:04.975Z,13.76
2022-07-25T20:31:14.605Z,16.38
2022-07-25T20:41:23.697Z,10.25
2022-07-25T21:11:38.679Z,10.79
2022-07-25T21:21:37.884Z,14.16
2022-07-25T21:31:49.496Z,10.39
2022-07-25T21:41:48.647Z,11.58
2022-07-25T22:12:01.628Z,17.23
2022-07-25T22:32:13.204Z,9.98
2022-07-25T22:52:28.615Z,9.2
2022-07-25T23:02:32.389Z,10.92
2022-07-25T23:12:32.008Z,11.32
2022-07-25T23:52:48.052Z,13.95
